Ana Sayfa
METAR-TAF:

METAR-TAF

Havaalanları :

Amerika Birleşik Devletleri Deniz Harp Okulu

Annapolis, Maryland, Amerika Birleşik Devletleri

Enlem: 38-59-29N, Boylam: 076-29-00W, yükseklik: 2 m

Güncel hava durumu gözlemi

Rapor saat 08:54 UTC de 1 saat ve 14 dakika önce yapıldı.
Rüzgar güneydoğudan 6 kt
Sıcaklık 7°C
Nem 93%
Basınç 1012 hPa
Görüş mesafesi: 11.3 km
4400 ft yükseklikte çok bulutlu

METAR: KNAK 250854Z AUTO 13006KT 7SM OVC044 07/06 A2988 RMK AO2 SLP118 60000 T00670056 58012

Saat: 05:08 (10:08 UTC)


TAF: eksik

4.000'den fazla havaalanı için hava durumu gözlemleri ve tahminleri (METAR ve TAF raporları).

Kullanılabilir istasyonlar harita üzerinde sarı ve kırmızı noktalarla gösterilir.

İstasyonun adını görmek için fareyi noktanın üzerinde gezdirin.

Sonrasında hava gözlem ve tahminlerini görmek için tıklayın.

Haritayı değiştirmek için: yaklaştırmak için siyah artı işaretli yeşil düğmeye ve uzaklaştırmak için de eksi işaretli düğmeye hızla tıklayın; bitişik haritalar için yeşil okları kullanın.


METAR-TAF: